Terminal Aerodrome Forecast
Issued by NWS

Home | Current Version | Previous Version | Text Only | Print | Product List | Glossary On
Versions: 1 2 3 4 5 6 7 8 9 10 11 12
000
FTUS42 TJSJ 301125
TAFISX
TAF
TISX 301125Z 3012/3112 07012KT P6SM VCSH FEW045
     FM301300 10014G24KT P6SM FEW026 SCT035
     FM301600 09015G23KT P6SM VCSH SCT030 SCT040
     FM302200 07012KT P6SM VCSH SCT025 SCT040=

USA.gov is the U.S. government's official web portal to all federal, state and local government web resources and services.